Terminal Aerodrome Forecast
Issued by NWS

Home | Current Version | Previous Version | Text Only | Print | Product List | Glossary On
Versions: 1 2 3 4 5 6 7 8 9 10 11 12 13 14 15 16
283
FTUS43 KICT 262322
TAFCNU
TAF
KCNU 262322Z 2700/2724 33008KT P6SM BKN040
     FM270600 30005KT P6SM SKC
      TEMPO 2708/2712 4SM BR
     FM271700 14007KT P6SM SCT110 BKN250=

USA.gov is the U.S. government's official web portal to all federal, state and local government web resources and services.